sensor_id;sensor_type;location;lat;lon;timestamp;P1;durP1;ratioP1;P2;durP2;ratioP2
18265;SDS011;9259;48.194;16.322;2023-09-19T00:00:19;3.17;;;0.40;;
18265;SDS011;9259;48.194;16.322;2023-09-19T00:02:53;0.30;;;0.20;;
18265;SDS011;9259;48.194;16.322;2023-09-19T00:05:24;1.55;;;0.50;;
18265;SDS011;9259;48.194;16.322;2023-09-19T00:07:54;0.95;;;0.30;;
18265;SDS011;9259;48.194;16.322;2023-09-19T00:10:24;3.60;;;0.60;;
18265;SDS011;9259;48.194;16.322;2023-09-19T00:12:54;2.72;;;0.60;;
18265;SDS011;9259;48.194;16.322;2023-09-19T00:15:22;1.05;;;0.40;;
18265;SDS011;9259;48.194;16.322;2023-09-19T00:17:51;2.92;;;0.55;;
18265;SDS011;9259;48.194;16.322;2023-09-19T00:20:19;1.50;;;0.50;;
18265;SDS011;9259;48.194;16.322;2023-09-19T00:22:49;0.30;;;0.30;;
18265;SDS011;9259;48.194;16.322;2023-09-19T00:25:17;1.85;;;0.60;;
18265;SDS011;9259;48.194;16.322;2023-09-19T00:27:45;3.05;;;0.70;;
18265;SDS011;9259;48.194;16.322;2023-09-19T00:30:17;2.42;;;0.50;;
18265;SDS011;9259;48.194;16.322;2023-09-19T00:32:47;1.23;;;0.40;;
18265;SDS011;9259;48.194;16.322;2023-09-19T00:35:15;0.60;;;0.50;;
18265;SDS011;9259;48.194;16.322;2023-09-19T00:37:44;0.95;;;0.55;;
18265;SDS011;9259;48.194;16.322;2023-09-19T00:40:12;0.55;;;0.30;;
18265;SDS011;9259;48.194;16.322;2023-09-19T00:42:41;2.65;;;0.38;;
18265;SDS011;9259;48.194;16.322;2023-09-19T00:45:09;1.20;;;0.40;;
18265;SDS011;9259;48.194;16.322;2023-09-19T00:47:39;1.45;;;0.30;;
18265;SDS011;9259;48.194;16.322;2023-09-19T00:50:09;1.02;;;0.40;;
18265;SDS011;9259;48.194;16.322;2023-09-19T00:52:40;1.27;;;0.38;;
18265;SDS011;9259;48.194;16.322;2023-09-19T00:55:10;0.60;;;0.50;;
18265;SDS011;9259;48.194;16.322;2023-09-19T00:57:40;0.82;;;0.40;;
18265;SDS011;9259;48.194;16.322;2023-09-19T01:00:09;0.82;;;0.30;;
18265;SDS011;9259;48.194;16.322;2023-09-19T01:02:42;4.55;;;0.63;;
18265;SDS011;9259;48.194;16.322;2023-09-19T01:05:10;0.32;;;0.30;;
18265;SDS011;9259;48.194;16.322;2023-09-19T01:07:39;1.90;;;0.40;;
18265;SDS011;9259;48.194;16.322;2023-09-19T01:10:08;1.25;;;0.40;;
18265;SDS011;9259;48.194;16.322;2023-09-19T01:12:43;0.45;;;0.30;;
18265;SDS011;9259;48.194;16.322;2023-09-19T01:15:21;0.60;;;0.40;;
18265;SDS011;9259;48.194;16.322;2023-09-19T01:17:56;1.00;;;0.38;;
18265;SDS011;9259;48.194;16.322;2023-09-19T01:20:31;1.88;;;0.60;;
18265;SDS011;9259;48.194;16.322;2023-09-19T01:23:10;0.80;;;0.47;;
18265;SDS011;9259;48.194;16.322;2023-09-19T01:25:56;0.88;;;0.20;;
18265;SDS011;9259;48.194;16.322;2023-09-19T01:28:34;0.40;;;0.30;;
18265;SDS011;9259;48.194;16.322;2023-09-19T01:31:22;0.77;;;0.50;;
18265;SDS011;9259;48.194;16.322;2023-09-19T01:33:55;1.25;;;0.60;;
18265;SDS011;9259;48.194;16.322;2023-09-19T01:36:25;0.93;;;0.40;;
18265;SDS011;9259;48.194;16.322;2023-09-19T01:38:54;2.17;;;0.43;;
18265;SDS011;9259;48.194;16.322;2023-09-19T01:41:26;1.05;;;0.40;;
18265;SDS011;9259;48.194;16.322;2023-09-19T01:43:58;2.08;;;0.50;;
18265;SDS011;9259;48.194;16.322;2023-09-19T01:46:32;2.15;;;0.75;;
18265;SDS011;9259;48.194;16.322;2023-09-19T01:49:07;3.53;;;0.77;;
18265;SDS011;9259;48.194;16.322;2023-09-19T01:51:45;2.13;;;0.70;;
18265;SDS011;9259;48.194;16.322;2023-09-19T01:54:16;2.40;;;0.60;;
18265;SDS011;9259;48.194;16.322;2023-09-19T01:56:50;3.72;;;0.73;;
18265;SDS011;9259;48.194;16.322;2023-09-19T01:59:22;2.22;;;0.60;;
18265;SDS011;9259;48.194;16.322;2023-09-19T02:01:54;1.40;;;0.50;;
18265;SDS011;9259;48.194;16.322;2023-09-19T02:04:23;3.40;;;0.70;;
18265;SDS011;9259;48.194;16.322;2023-09-19T02:06:52;1.13;;;0.60;;
18265;SDS011;9259;48.194;16.322;2023-09-19T02:09:21;1.00;;;0.70;;
18265;SDS011;9259;48.194;16.322;2023-09-19T02:11:49;1.92;;;0.55;;
18265;SDS011;9259;48.194;16.322;2023-09-19T02:14:17;1.35;;;0.45;;
18265;SDS011;9259;48.194;16.322;2023-09-19T02:16:47;2.28;;;0.40;;
18265;SDS011;9259;48.194;16.322;2023-09-19T02:19:16;1.25;;;0.65;;
18265;SDS011;9259;48.194;16.322;2023-09-19T02:21:46;2.00;;;0.43;;
18265;SDS011;9259;48.194;16.322;2023-09-19T02:24:15;1.17;;;0.50;;
18265;SDS011;9259;48.194;16.322;2023-09-19T02:26:43;1.40;;;0.60;;
18265;SDS011;9259;48.194;16.322;2023-09-19T02:29:11;0.82;;;0.47;;
18265;SDS011;9259;48.194;16.322;2023-09-19T02:31:39;0.63;;;0.40;;
18265;SDS011;9259;48.194;16.322;2023-09-19T02:34:08;1.60;;;0.50;;
18265;SDS011;9259;48.194;16.322;2023-09-19T02:36:37;2.92;;;0.60;;
18265;SDS011;9259;48.194;16.322;2023-09-19T02:39:05;1.15;;;0.43;;
18265;SDS011;9259;48.194;16.322;2023-09-19T02:41:34;0.93;;;0.35;;
18265;SDS011;9259;48.194;16.322;2023-09-19T02:44:02;2.67;;;0.50;;
18265;SDS011;9259;48.194;16.322;2023-09-19T02:46:33;1.40;;;0.50;;
18265;SDS011;9259;48.194;16.322;2023-09-19T02:49:02;0.88;;;0.50;;
18265;SDS011;9259;48.194;16.322;2023-09-19T02:51:32;0.70;;;0.40;;
18265;SDS011;9259;48.194;16.322;2023-09-19T02:54:01;2.13;;;0.50;;
18265;SDS011;9259;48.194;16.322;2023-09-19T02:56:30;2.47;;;0.57;;
18265;SDS011;9259;48.194;16.322;2023-09-19T02:58:58;1.00;;;0.50;;
18265;SDS011;9259;48.194;16.322;2023-09-19T03:01:26;1.20;;;0.50;;
18265;SDS011;9259;48.194;16.322;2023-09-19T03:03:55;1.35;;;0.57;;
18265;SDS011;9259;48.194;16.322;2023-09-19T03:06:23;1.50;;;0.70;;
18265;SDS011;9259;48.194;16.322;2023-09-19T03:08:51;2.25;;;0.80;;
18265;SDS011;9259;48.194;16.322;2023-09-19T03:11:20;2.25;;;0.60;;
18265;SDS011;9259;48.194;16.322;2023-09-19T03:13:51;0.43;;;0.40;;
18265;SDS011;9259;48.194;16.322;2023-09-19T03:16:19;3.05;;;0.80;;
18265;SDS011;9259;48.194;16.322;2023-09-19T03:18:48;1.55;;;0.60;;
18265;SDS011;9259;48.194;16.322;2023-09-19T03:21:16;1.10;;;0.60;;
18265;SDS011;9259;48.194;16.322;2023-09-19T03:23:45;1.33;;;0.50;;
18265;SDS011;9259;48.194;16.322;2023-09-19T03:26:13;1.20;;;0.70;;
18265;SDS011;9259;48.194;16.322;2023-09-19T03:28:43;0.98;;;0.60;;
18265;SDS011;9259;48.194;16.322;2023-09-19T03:31:11;0.80;;;0.60;;
18265;SDS011;9259;48.194;16.322;2023-09-19T03:33:39;1.55;;;0.80;;
18265;SDS011;9259;48.194;16.322;2023-09-19T03:36:07;1.63;;;0.63;;
18265;SDS011;9259;48.194;16.322;2023-09-19T03:38:36;1.92;;;1.00;;
18265;SDS011;9259;48.194;16.322;2023-09-19T03:41:04;5.93;;;1.00;;
18265;SDS011;9259;48.194;16.322;2023-09-19T03:43:32;1.52;;;0.63;;
18265;SDS011;9259;48.194;16.322;2023-09-19T03:46:02;1.95;;;0.93;;
18265;SDS011;9259;48.194;16.322;2023-09-19T03:48:31;2.70;;;0.75;;
18265;SDS011;9259;48.194;16.322;2023-09-19T03:50:59;1.65;;;0.80;;
18265;SDS011;9259;48.194;16.322;2023-09-19T03:53:27;1.85;;;0.85;;
18265;SDS011;9259;48.194;16.322;2023-09-19T03:55:55;1.48;;;0.60;;
18265;SDS011;9259;48.194;16.322;2023-09-19T03:58:24;2.10;;;0.70;;
18265;SDS011;9259;48.194;16.322;2023-09-19T04:00:54;2.00;;;0.70;;
18265;SDS011;9259;48.194;16.322;2023-09-19T04:03:24;3.33;;;0.85;;
18265;SDS011;9259;48.194;16.322;2023-09-19T04:06:00;1.95;;;0.80;;
18265;SDS011;9259;48.194;16.322;2023-09-19T04:08:28;3.65;;;0.90;;
18265;SDS011;9259;48.194;16.322;2023-09-19T04:10:56;2.75;;;1.38;;
18265;SDS011;9259;48.194;16.322;2023-09-19T04:13:25;2.50;;;0.80;;
18265;SDS011;9259;48.194;16.322;2023-09-19T04:15:54;3.83;;;0.90;;
18265;SDS011;9259;48.194;16.322;2023-09-19T04:18:22;1.33;;;0.80;;
18265;SDS011;9259;48.194;16.322;2023-09-19T04:20:51;2.67;;;1.17;;
18265;SDS011;9259;48.194;16.322;2023-09-19T04:23:21;1.23;;;0.73;;
18265;SDS011;9259;48.194;16.322;2023-09-19T04:25:49;2.70;;;0.70;;
18265;SDS011;9259;48.194;16.322;2023-09-19T04:28:18;3.40;;;0.82;;
18265;SDS011;9259;48.194;16.322;2023-09-19T04:30:46;1.40;;;1.00;;
18265;SDS011;9259;48.194;16.322;2023-09-19T04:33:14;1.75;;;0.75;;
18265;SDS011;9259;48.194;16.322;2023-09-19T04:35:43;1.80;;;0.98;;
18265;SDS011;9259;48.194;16.322;2023-09-19T04:38:11;1.27;;;0.80;;
18265;SDS011;9259;48.194;16.322;2023-09-19T04:40:40;2.88;;;0.90;;
18265;SDS011;9259;48.194;16.322;2023-09-19T04:43:09;2.38;;;1.00;;
18265;SDS011;9259;48.194;16.322;2023-09-19T04:45:38;2.38;;;1.17;;
18265;SDS011;9259;48.194;16.322;2023-09-19T04:48:06;2.95;;;0.90;;
18265;SDS011;9259;48.194;16.322;2023-09-19T04:50:35;1.73;;;0.95;;
18265;SDS011;9259;48.194;16.322;2023-09-19T04:53:05;2.30;;;0.88;;
18265;SDS011;9259;48.194;16.322;2023-09-19T04:55:33;1.83;;;0.90;;
18265;SDS011;9259;48.194;16.322;2023-09-19T04:58:02;1.58;;;1.15;;
18265;SDS011;9259;48.194;16.322;2023-09-19T05:00:30;2.13;;;1.00;;
18265;SDS011;9259;48.194;16.322;2023-09-19T05:03:00;3.47;;;1.20;;
18265;SDS011;9259;48.194;16.322;2023-09-19T05:05:30;2.22;;;1.10;;
18265;SDS011;9259;48.194;16.322;2023-09-19T05:07:57;3.13;;;1.40;;
18265;SDS011;9259;48.194;16.322;2023-09-19T05:10:27;3.85;;;1.35;;
18265;SDS011;9259;48.194;16.322;2023-09-19T05:12:55;4.93;;;1.25;;
18265;SDS011;9259;48.194;16.322;2023-09-19T05:15:23;3.17;;;1.30;;
18265;SDS011;9259;48.194;16.322;2023-09-19T05:17:51;3.75;;;1.25;;
18265;SDS011;9259;48.194;16.322;2023-09-19T05:20:20;2.92;;;1.35;;
18265;SDS011;9259;48.194;16.322;2023-09-19T05:22:58;3.42;;;1.48;;
18265;SDS011;9259;48.194;16.322;2023-09-19T05:25:30;5.63;;;1.70;;
18265;SDS011;9259;48.194;16.322;2023-09-19T05:28:03;3.08;;;1.60;;
18265;SDS011;9259;48.194;16.322;2023-09-19T05:30:31;4.07;;;1.52;;
18265;SDS011;9259;48.194;16.322;2023-09-19T05:33:01;9.32;;;1.92;;
18265;SDS011;9259;48.194;16.322;2023-09-19T05:35:30;5.03;;;1.88;;
18265;SDS011;9259;48.194;16.322;2023-09-19T05:37:58;7.38;;;1.67;;
18265;SDS011;9259;48.194;16.322;2023-09-19T05:40:26;2.65;;;1.45;;
18265;SDS011;9259;48.194;16.322;2023-09-19T05:42:55;4.05;;;1.40;;
18265;SDS011;9259;48.194;16.322;2023-09-19T05:45:24;3.35;;;1.52;;
18265;SDS011;9259;48.194;16.322;2023-09-19T05:47:53;3.88;;;1.52;;
18265;SDS011;9259;48.194;16.322;2023-09-19T05:50:27;4.60;;;1.50;;
18265;SDS011;9259;48.194;16.322;2023-09-19T05:52:55;3.88;;;1.42;;
18265;SDS011;9259;48.194;16.322;2023-09-19T05:55:23;3.17;;;1.70;;
18265;SDS011;9259;48.194;16.322;2023-09-19T05:57:52;4.88;;;1.55;;
18265;SDS011;9259;48.194;16.322;2023-09-19T06:00:21;4.03;;;1.67;;
18265;SDS011;9259;48.194;16.322;2023-09-19T06:02:52;2.70;;;1.13;;
18265;SDS011;9259;48.194;16.322;2023-09-19T06:05:20;3.17;;;1.40;;
18265;SDS011;9259;48.194;16.322;2023-09-19T06:07:48;3.00;;;1.20;;
18265;SDS011;9259;48.194;16.322;2023-09-19T06:10:18;3.05;;;1.50;;
18265;SDS011;9259;48.194;16.322;2023-09-19T06:12:46;3.53;;;1.90;;
18265;SDS011;9259;48.194;16.322;2023-09-19T06:15:15;4.05;;;1.60;;
18265;SDS011;9259;48.194;16.322;2023-09-19T06:17:47;3.10;;;1.42;;
18265;SDS011;9259;48.194;16.322;2023-09-19T06:20:16;3.15;;;1.55;;
18265;SDS011;9259;48.194;16.322;2023-09-19T06:22:45;3.95;;;1.45;;
18265;SDS011;9259;48.194;16.322;2023-09-19T06:25:14;3.08;;;1.38;;
18265;SDS011;9259;48.194;16.322;2023-09-19T06:27:45;2.80;;;1.13;;
18265;SDS011;9259;48.194;16.322;2023-09-19T06:30:13;5.85;;;1.35;;
18265;SDS011;9259;48.194;16.322;2023-09-19T06:32:43;1.98;;;1.17;;
18265;SDS011;9259;48.194;16.322;2023-09-19T06:35:13;5.20;;;1.10;;
18265;SDS011;9259;48.194;16.322;2023-09-19T06:37:42;5.22;;;1.50;;
18265;SDS011;9259;48.194;16.322;2023-09-19T06:40:11;4.15;;;1.40;;
18265;SDS011;9259;48.194;16.322;2023-09-19T06:42:40;3.38;;;1.33;;
18265;SDS011;9259;48.194;16.322;2023-09-19T06:45:10;2.95;;;1.25;;
18265;SDS011;9259;48.194;16.322;2023-09-19T06:47:39;3.60;;;1.20;;
18265;SDS011;9259;48.194;16.322;2023-09-19T06:50:08;8.50;;;1.63;;
18265;SDS011;9259;48.194;16.322;2023-09-19T06:52:40;11.05;;;1.48;;
18265;SDS011;9259;48.194;16.322;2023-09-19T06:55:08;2.10;;;1.10;;
18265;SDS011;9259;48.194;16.322;2023-09-19T06:57:39;3.35;;;1.20;;
18265;SDS011;9259;48.194;16.322;2023-09-19T07:00:09;3.45;;;1.40;;
18265;SDS011;9259;48.194;16.322;2023-09-19T07:02:43;2.00;;;1.00;;
18265;SDS011;9259;48.194;16.322;2023-09-19T07:05:12;4.70;;;1.48;;
18265;SDS011;9259;48.194;16.322;2023-09-19T07:07:41;3.03;;;1.10;;
18265;SDS011;9259;48.194;16.322;2023-09-19T07:10:10;4.47;;;1.17;;
18265;SDS011;9259;48.194;16.322;2023-09-19T07:12:38;4.40;;;1.42;;
18265;SDS011;9259;48.194;16.322;2023-09-19T07:15:08;2.42;;;1.20;;
18265;SDS011;9259;48.194;16.322;2023-09-19T07:17:40;3.78;;;1.10;;
18265;SDS011;9259;48.194;16.322;2023-09-19T07:20:09;3.03;;;1.30;;
18265;SDS011;9259;48.194;16.322;2023-09-19T07:22:43;2.92;;;1.38;;
18265;SDS011;9259;48.194;16.322;2023-09-19T07:25:11;3.13;;;1.30;;
18265;SDS011;9259;48.194;16.322;2023-09-19T07:27:39;3.60;;;1.23;;
18265;SDS011;9259;48.194;16.322;2023-09-19T07:30:08;2.72;;;1.40;;
18265;SDS011;9259;48.194;16.322;2023-09-19T07:32:37;3.45;;;1.45;;
18265;SDS011;9259;48.194;16.322;2023-09-19T07:35:06;1.13;;;0.98;;
18265;SDS011;9259;48.194;16.322;2023-09-19T07:37:35;4.75;;;1.50;;
18265;SDS011;9259;48.194;16.322;2023-09-19T07:40:05;5.45;;;1.60;;
18265;SDS011;9259;48.194;16.322;2023-09-19T07:42:35;3.40;;;1.10;;
18265;SDS011;9259;48.194;16.322;2023-09-19T07:45:06;3.42;;;1.73;;
18265;SDS011;9259;48.194;16.322;2023-09-19T07:47:35;3.42;;;1.17;;
18265;SDS011;9259;48.194;16.322;2023-09-19T07:50:03;3.65;;;1.30;;
18265;SDS011;9259;48.194;16.322;2023-09-19T07:52:33;7.78;;;1.15;;
18265;SDS011;9259;48.194;16.322;2023-09-19T07:55:01;3.25;;;1.20;;
18265;SDS011;9259;48.194;16.322;2023-09-19T07:57:36;5.28;;;1.30;;
18265;SDS011;9259;48.194;16.322;2023-09-19T08:00:04;2.42;;;1.20;;
18265;SDS011;9259;48.194;16.322;2023-09-19T08:02:34;1.65;;;0.90;;
18265;SDS011;9259;48.194;16.322;2023-09-19T08:05:04;2.50;;;1.08;;
18265;SDS011;9259;48.194;16.322;2023-09-19T08:07:35;3.33;;;1.40;;
18265;SDS011;9259;48.194;16.322;2023-09-19T08:10:03;4.18;;;1.35;;
18265;SDS011;9259;48.194;16.322;2023-09-19T08:12:33;2.13;;;1.10;;
18265;SDS011;9259;48.194;16.322;2023-09-19T08:15:02;7.43;;;1.45;;
18265;SDS011;9259;48.194;16.322;2023-09-19T08:17:33;2.80;;;1.10;;
18265;SDS011;9259;48.194;16.322;2023-09-19T08:20:01;4.22;;;1.38;;
18265;SDS011;9259;48.194;16.322;2023-09-19T08:22:31;5.53;;;1.17;;
18265;SDS011;9259;48.194;16.322;2023-09-19T08:24:59;3.88;;;1.10;;
18265;SDS011;9259;48.194;16.322;2023-09-19T08:27:27;4.43;;;1.33;;
18265;SDS011;9259;48.194;16.322;2023-09-19T08:29:58;4.50;;;1.23;;
18265;SDS011;9259;48.194;16.322;2023-09-19T08:32:26;3.38;;;0.98;;
18265;SDS011;9259;48.194;16.322;2023-09-19T08:34:55;1.25;;;0.90;;
18265;SDS011;9259;48.194;16.322;2023-09-19T08:37:23;4.63;;;1.40;;
18265;SDS011;9259;48.194;16.322;2023-09-19T08:39:51;2.17;;;1.20;;
18265;SDS011;9259;48.194;16.322;2023-09-19T08:42:19;3.47;;;1.70;;
18265;SDS011;9259;48.194;16.322;2023-09-19T08:44:50;8.57;;;1.50;;
18265;SDS011;9259;48.194;16.322;2023-09-19T08:47:23;3.22;;;1.20;;
18265;SDS011;9259;48.194;16.322;2023-09-19T08:49:57;2.20;;;1.33;;
18265;SDS011;9259;48.194;16.322;2023-09-19T08:52:32;4.47;;;1.38;;
18265;SDS011;9259;48.194;16.322;2023-09-19T08:55:04;4.00;;;1.33;;
18265;SDS011;9259;48.194;16.322;2023-09-19T08:57:35;3.53;;;1.50;;
18265;SDS011;9259;48.194;16.322;2023-09-19T09:00:07;4.40;;;2.33;;
18265;SDS011;9259;48.194;16.322;2023-09-19T09:02:39;3.67;;;1.35;;
18265;SDS011;9259;48.194;16.322;2023-09-19T09:05:07;2.58;;;1.38;;
18265;SDS011;9259;48.194;16.322;2023-09-19T09:07:36;7.22;;;1.23;;
18265;SDS011;9259;48.194;16.322;2023-09-19T09:10:05;1.88;;;0.90;;
18265;SDS011;9259;48.194;16.322;2023-09-19T09:12:34;3.97;;;1.35;;
18265;SDS011;9259;48.194;16.322;2023-09-19T09:15:05;5.93;;;1.23;;
18265;SDS011;9259;48.194;16.322;2023-09-19T09:17:38;2.50;;;1.27;;
18265;SDS011;9259;48.194;16.322;2023-09-19T09:20:07;2.30;;;1.30;;
18265;SDS011;9259;48.194;16.322;2023-09-19T09:22:36;3.85;;;1.63;;
18265;SDS011;9259;48.194;16.322;2023-09-19T09:25:05;3.97;;;1.13;;
18265;SDS011;9259;48.194;16.322;2023-09-19T09:27:34;2.45;;;1.17;;
18265;SDS011;9259;48.194;16.322;2023-09-19T09:30:02;2.80;;;1.00;;
18265;SDS011;9259;48.194;16.322;2023-09-19T09:32:33;8.55;;;1.02;;
18265;SDS011;9259;48.194;16.322;2023-09-19T09:35:07;4.63;;;1.08;;
18265;SDS011;9259;48.194;16.322;2023-09-19T09:37:36;2.15;;;1.20;;
18265;SDS011;9259;48.194;16.322;2023-09-19T09:40:06;2.28;;;0.98;;
18265;SDS011;9259;48.194;16.322;2023-09-19T09:42:49;1.83;;;1.20;;
18265;SDS011;9259;48.194;16.322;2023-09-19T09:45:24;2.22;;;1.10;;
18265;SDS011;9259;48.194;16.322;2023-09-19T09:48:03;4.60;;;1.20;;
18265;SDS011;9259;48.194;16.322;2023-09-19T09:50:46;2.45;;;1.02;;
18265;SDS011;9259;48.194;16.322;2023-09-19T09:53:22;1.92;;;0.90;;
18265;SDS011;9259;48.194;16.322;2023-09-19T09:55:59;4.50;;;1.17;;
18265;SDS011;9259;48.194;16.322;2023-09-19T09:58:29;4.38;;;1.00;;
18265;SDS011;9259;48.194;16.322;2023-09-19T10:00:58;2.47;;;1.30;;
18265;SDS011;9259;48.194;16.322;2023-09-19T10:03:32;1.63;;;1.00;;
18265;SDS011;9259;48.194;16.322;2023-09-19T10:06:10;2.70;;;1.10;;
18265;SDS011;9259;48.194;16.322;2023-09-19T10:08:59;5.50;;;1.00;;
18265;SDS011;9259;48.194;16.322;2023-09-19T10:11:31;3.55;;;1.10;;
18265;SDS011;9259;48.194;16.322;2023-09-19T10:13:59;3.33;;;1.20;;
18265;SDS011;9259;48.194;16.322;2023-09-19T10:16:32;1.50;;;0.90;;
18265;SDS011;9259;48.194;16.322;2023-09-19T10:19:01;1.30;;;0.90;;
18265;SDS011;9259;48.194;16.322;2023-09-19T10:21:31;3.03;;;1.10;;
18265;SDS011;9259;48.194;16.322;2023-09-19T10:23:59;5.60;;;1.13;;
18265;SDS011;9259;48.194;16.322;2023-09-19T10:26:34;2.42;;;0.93;;
18265;SDS011;9259;48.194;16.322;2023-09-19T10:29:05;2.80;;;1.27;;
18265;SDS011;9259;48.194;16.322;2023-09-19T10:31:35;1.77;;;1.10;;
18265;SDS011;9259;48.194;16.322;2023-09-19T10:34:06;3.72;;;1.08;;
18265;SDS011;9259;48.194;16.322;2023-09-19T10:36:37;2.53;;;0.95;;
18265;SDS011;9259;48.194;16.322;2023-09-19T10:39:07;1.45;;;1.00;;
18265;SDS011;9259;48.194;16.322;2023-09-19T10:41:38;6.90;;;1.40;;
18265;SDS011;9259;48.194;16.322;2023-09-19T10:44:06;2.92;;;1.45;;
18265;SDS011;9259;48.194;16.322;2023-09-19T10:46:35;2.28;;;1.15;;
18265;SDS011;9259;48.194;16.322;2023-09-19T10:49:05;2.33;;;1.30;;
18265;SDS011;9259;48.194;16.322;2023-09-19T10:51:39;2.40;;;1.02;;
18265;SDS011;9259;48.194;16.322;2023-09-19T10:54:10;2.22;;;1.13;;
18265;SDS011;9259;48.194;16.322;2023-09-19T10:56:42;1.70;;;1.00;;
18265;SDS011;9259;48.194;16.322;2023-09-19T10:59:13;2.30;;;0.98;;
18265;SDS011;9259;48.194;16.322;2023-09-19T11:01:44;1.88;;;1.10;;
18265;SDS011;9259;48.194;16.322;2023-09-19T11:04:23;1.60;;;1.10;;
18265;SDS011;9259;48.194;16.322;2023-09-19T11:07:04;4.32;;;1.10;;
18265;SDS011;9259;48.194;16.322;2023-09-19T11:09:43;7.57;;;1.02;;
18265;SDS011;9259;48.194;16.322;2023-09-19T11:12:12;2.22;;;1.08;;
18265;SDS011;9259;48.194;16.322;2023-09-19T11:24:30;2.00;;;1.13;;
18265;SDS011;9259;48.194;16.322;2023-09-19T11:29:47;4.28;;;1.00;;
18265;SDS011;9259;48.194;16.322;2023-09-19T11:32:15;2.42;;;1.10;;
18265;SDS011;9259;48.194;16.322;2023-09-19T11:34:48;2.78;;;1.00;;
18265;SDS011;9259;48.194;16.322;2023-09-19T11:40:34;3.13;;;0.90;;
18265;SDS011;9259;48.194;16.322;2023-09-19T11:46:08;6.13;;;0.90;;
18265;SDS011;9259;48.194;16.322;2023-09-19T11:48:38;2.17;;;1.00;;
18265;SDS011;9259;48.194;16.322;2023-09-19T11:51:15;3.65;;;0.90;;
18265;SDS011;9259;48.194;16.322;2023-09-19T11:53:52;1.77;;;1.00;;
18265;SDS011;9259;48.194;16.322;2023-09-19T11:56:22;1.98;;;1.00;;
18265;SDS011;9259;48.194;16.322;2023-09-19T11:58:54;1.73;;;1.10;;
18265;SDS011;9259;48.194;16.322;2023-09-19T12:01:24;1.60;;;1.08;;
18265;SDS011;9259;48.194;16.322;2023-09-19T12:03:57;4.07;;;1.00;;
18265;SDS011;9259;48.194;16.322;2023-09-19T12:06:28;2.63;;;0.93;;
18265;SDS011;9259;48.194;16.322;2023-09-19T12:08:58;1.77;;;1.15;;
18265;SDS011;9259;48.194;16.322;2023-09-19T12:11:29;1.95;;;1.20;;
18265;SDS011;9259;48.194;16.322;2023-09-19T12:13:59;2.92;;;1.30;;
18265;SDS011;9259;48.194;16.322;2023-09-19T12:16:27;3.10;;;1.27;;
18265;SDS011;9259;48.194;16.322;2023-09-19T12:18:56;4.93;;;1.27;;
18265;SDS011;9259;48.194;16.322;2023-09-19T12:21:25;2.72;;;0.90;;
18265;SDS011;9259;48.194;16.322;2023-09-19T12:23:59;1.30;;;0.80;;
18265;SDS011;9259;48.194;16.322;2023-09-19T12:26:39;2.25;;;0.88;;
18265;SDS011;9259;48.194;16.322;2023-09-19T12:29:12;1.92;;;0.70;;
18265;SDS011;9259;48.194;16.322;2023-09-19T12:31:49;4.22;;;0.60;;
18265;SDS011;9259;48.194;16.322;2023-09-19T12:34:21;2.70;;;1.00;;
18265;SDS011;9259;48.194;16.322;2023-09-19T12:37:05;2.38;;;0.98;;
18265;SDS011;9259;48.194;16.322;2023-09-19T12:39:37;1.65;;;1.00;;
18265;SDS011;9259;48.194;16.322;2023-09-19T12:42:09;2.40;;;0.90;;
18265;SDS011;9259;48.194;16.322;2023-09-19T12:44:40;2.03;;;0.80;;
18265;SDS011;9259;48.194;16.322;2023-09-19T12:47:10;3.72;;;0.80;;
18265;SDS011;9259;48.194;16.322;2023-09-19T12:52:39;2.60;;;0.82;;
18265;SDS011;9259;48.194;16.322;2023-09-19T12:55:09;2.28;;;0.80;;
18265;SDS011;9259;48.194;16.322;2023-09-19T12:58:12;1.10;;;0.80;;
18265;SDS011;9259;48.194;16.322;2023-09-19T13:00:42;1.15;;;0.80;;
18265;SDS011;9259;48.194;16.322;2023-09-19T13:03:15;1.50;;;0.70;;
18265;SDS011;9259;48.194;16.322;2023-09-19T13:05:48;1.63;;;0.82;;
18265;SDS011;9259;48.194;16.322;2023-09-19T13:08:18;3.85;;;0.90;;
18265;SDS011;9259;48.194;16.322;2023-09-19T13:11:00;2.45;;;1.00;;
18265;SDS011;9259;48.194;16.322;2023-09-19T13:13:31;1.73;;;1.30;;
18265;SDS011;9259;48.194;16.322;2023-09-19T13:16:00;1.40;;;0.93;;
18265;SDS011;9259;48.194;16.322;2023-09-19T13:18:30;2.60;;;0.90;;
18265;SDS011;9259;48.194;16.322;2023-09-19T13:21:05;2.47;;;0.95;;
18265;SDS011;9259;48.194;16.322;2023-09-19T13:23:36;1.98;;;0.80;;
18265;SDS011;9259;48.194;16.322;2023-09-19T13:26:04;1.02;;;0.70;;
18265;SDS011;9259;48.194;16.322;2023-09-19T13:28:34;1.27;;;0.68;;
18265;SDS011;9259;48.194;16.322;2023-09-19T13:31:02;1.30;;;0.80;;
18265;SDS011;9259;48.194;16.322;2023-09-19T13:33:31;1.67;;;0.55;;
18265;SDS011;9259;48.194;16.322;2023-09-19T13:36:01;3.25;;;0.70;;
18265;SDS011;9259;48.194;16.322;2023-09-19T13:38:30;1.60;;;0.90;;
18265;SDS011;9259;48.194;16.322;2023-09-19T13:41:00;2.13;;;0.85;;
18265;SDS011;9259;48.194;16.322;2023-09-19T13:43:28;2.17;;;1.10;;
18265;SDS011;9259;48.194;16.322;2023-09-19T13:45:58;1.85;;;0.80;;
18265;SDS011;9259;48.194;16.322;2023-09-19T13:48:26;0.73;;;0.73;;
18265;SDS011;9259;48.194;16.322;2023-09-19T13:50:55;1.63;;;0.80;;
18265;SDS011;9259;48.194;16.322;2023-09-19T13:53:23;1.45;;;0.70;;
18265;SDS011;9259;48.194;16.322;2023-09-19T13:55:51;1.17;;;0.80;;
18265;SDS011;9259;48.194;16.322;2023-09-19T13:58:19;1.27;;;0.93;;
18265;SDS011;9259;48.194;16.322;2023-09-19T14:00:50;1.75;;;0.80;;
18265;SDS011;9259;48.194;16.322;2023-09-19T14:03:22;1.25;;;0.70;;
18265;SDS011;9259;48.194;16.322;2023-09-19T14:05:50;0.95;;;0.68;;
18265;SDS011;9259;48.194;16.322;2023-09-19T14:08:18;0.82;;;0.63;;
18265;SDS011;9259;48.194;16.322;2023-09-19T14:10:49;1.83;;;1.13;;
18265;SDS011;9259;48.194;16.322;2023-09-19T14:13:17;2.13;;;0.85;;
18265;SDS011;9259;48.194;16.322;2023-09-19T14:15:46;1.25;;;0.82;;
18265;SDS011;9259;48.194;16.322;2023-09-19T14:18:14;2.20;;;0.73;;
18265;SDS011;9259;48.194;16.322;2023-09-19T14:20:45;1.67;;;0.70;;
18265;SDS011;9259;48.194;16.322;2023-09-19T14:23:13;1.60;;;0.80;;
18265;SDS011;9259;48.194;16.322;2023-09-19T14:25:42;0.65;;;0.60;;
18265;SDS011;9259;48.194;16.322;2023-09-19T14:28:10;1.52;;;0.90;;
18265;SDS011;9259;48.194;16.322;2023-09-19T14:30:38;1.42;;;0.70;;
18265;SDS011;9259;48.194;16.322;2023-09-19T14:33:06;2.17;;;0.80;;
18265;SDS011;9259;48.194;16.322;2023-09-19T14:35:36;2.17;;;1.10;;
18265;SDS011;9259;48.194;16.322;2023-09-19T14:38:06;3.83;;;1.05;;
18265;SDS011;9259;48.194;16.322;2023-09-19T14:40:34;3.33;;;1.00;;
18265;SDS011;9259;48.194;16.322;2023-09-19T14:43:03;1.35;;;1.00;;
18265;SDS011;9259;48.194;16.322;2023-09-19T14:45:31;1.77;;;0.95;;
18265;SDS011;9259;48.194;16.322;2023-09-19T14:47:59;3.13;;;1.08;;
18265;SDS011;9259;48.194;16.322;2023-09-19T14:50:30;1.70;;;0.90;;
18265;SDS011;9259;48.194;16.322;2023-09-19T14:52:58;1.77;;;0.90;;
18265;SDS011;9259;48.194;16.322;2023-09-19T14:55:29;3.22;;;0.70;;
18265;SDS011;9259;48.194;16.322;2023-09-19T14:58:01;1.70;;;0.70;;
18265;SDS011;9259;48.194;16.322;2023-09-19T15:00:29;2.47;;;1.08;;
18265;SDS011;9259;48.194;16.322;2023-09-19T15:03:00;1.83;;;0.80;;
18265;SDS011;9259;48.194;16.322;2023-09-19T15:05:29;2.15;;;0.80;;
18265;SDS011;9259;48.194;16.322;2023-09-19T15:07:58;2.88;;;1.17;;
18265;SDS011;9259;48.194;16.322;2023-09-19T15:10:30;2.72;;;0.90;;
18265;SDS011;9259;48.194;16.322;2023-09-19T15:12:58;2.28;;;0.98;;
18265;SDS011;9259;48.194;16.322;2023-09-19T15:15:27;2.90;;;0.90;;
18265;SDS011;9259;48.194;16.322;2023-09-19T15:17:59;4.03;;;1.15;;
18265;SDS011;9259;48.194;16.322;2023-09-19T15:20:29;3.78;;;1.10;;
18265;SDS011;9259;48.194;16.322;2023-09-19T15:22:58;1.85;;;0.80;;
18265;SDS011;9259;48.194;16.322;2023-09-19T15:25:28;1.67;;;0.75;;
18265;SDS011;9259;48.194;16.322;2023-09-19T15:28:01;1.73;;;0.90;;